Latest Weather Observations for Willis Island

IDQ60801

Issued at 10:02 am EST Friday 30 January 2015 (issued every 30 minutes, with the page automatically refreshed every 10 minutes)

About weather observations | Map of weather stations | Latest weather observations for QLD | Other Formats
Station Details ID: 200283 Name: WILLIS ISLAND Lat: -16.29 Lon: 149.97 Height: 9.29 m
Data from the previous 72 hours. | See also: Recent months at Willis Island
Date/Time
EST
Temp
°C
App
Temp
°C
Dew
Point
Rel
Hum
%
Delta-T
°C
Wind Press
QNH
hPa
Press
MSL
hPa
Rain
since 9 am
mm
Dir
 
Spd
km/h
Gust
km/h
Spd
kts
Gust
kts
30/10:00am 29.9 33.4 24.9 74 3.5 WSW 15 20 8 11 1006.0 - 0.0
30/09:30am 29.3 31.5 24.9 77 3.1 WSW 22 26 12 14 1006.2 - 0.0
30/09:00am 28.3 30.9 23.3 74 3.4 WSW 15 17 8 9 1006.3 1006.3 0.0
30/08:30am 27.8 29.4 23.9 79 2.7 WSW 22 24 12 13 1006.2 - 0.0
30/08:00am 27.2 28.1 23.3 79 2.7 SW 24 30 13 16 1005.8 - 0.0
30/07:30am 26.8 27.3 23.3 81 2.4 WSW 26 30 14 16 1005.7 - 0.0
30/07:00am 26.7 27.2 22.6 78 2.8 SW 24 28 13 15 1005.8 - 0.0
30/06:30am 26.2 24.8 21.9 77 2.9 SSW 32 39 17 21 1005.6 - 0.0
30/06:01am 26.2 25.0 23.9 87 1.6 SSW 37 44 20 24 1004.9 - 0.0
30/06:00am 27.0 27.8 24.4 86 1.8 WSW 28 39 15 21 1004.9 1004.9 0.0
30/05:30am 28.0 29.6 25.2 85 2.0 WNW 26 30 14 16 1004.0 - 0.0
30/05:00am 27.8 30.2 25.2 86 1.8 WNW 22 28 12 15 1003.9 - 0.0
30/04:30am 27.9 30.9 25.5 87 1.7 NW 20 24 11 13 1004.0 - 0.0
30/04:00am 27.9 30.9 25.5 87 1.7 WNW 20 22 11 12 1003.9 - 0.0
30/03:30am 27.9 30.7 25.3 86 1.8 WNW 20 22 11 12 1003.7 - 0.0
30/03:00am 27.9 31.3 25.3 86 1.8 WNW 17 19 9 10 1003.8 1003.8 0.0
30/02:30am 27.9 31.4 25.5 87 1.7 WNW 17 20 9 11 1003.8 - 0.0
30/02:00am 28.0 31.6 25.6 87 1.7 NW 17 19 9 10 1004.0 - 0.0
30/01:30am 28.0 32.1 25.7 87 1.6 WNW 15 17 8 9 1004.3 - 0.0
30/01:00am 28.0 32.2 25.9 88 1.5 WNW 15 15 8 8 1004.7 - 0.0
30/12:30am 28.1 31.8 25.8 87 1.6 WNW 17 19 9 10 1004.9 - 0.0
30/12:00am 28.1 32.2 25.8 87 1.6 WNW 15 17 8 9 1005.1 1005.1 0.0
 
Date/Time
EST
Temp
°C
App
Temp
°C
Dew
Point
Rel
Hum
%
Delta-T
°C
Wind Press
QNH
hPa
Press
MSL
hPa
Rain
since 9 am
mm
Dir
 
Spd
km/h
Gust
km/h
Spd
kts
Gust
kts
29/11:30pm 28.2 32.3 25.8 87 1.7 WNW 15 17 8 9 1005.3 - 0.0
29/11:00pm 28.5 32.4 26.0 86 1.8 W 17 19 9 10 1005.6 - 0.0
29/10:30pm 28.5 31.9 25.8 85 1.9 W 19 20 10 11 1005.7 - 0.0
29/10:00pm 28.4 32.3 26.0 87 1.7 W 17 19 9 10 1005.7 - 0.0
29/09:30pm 28.4 32.6 26.0 87 1.7 W 15 19 8 10 1005.3 - 0.0
29/09:00pm 28.6 31.8 25.9 85 1.9 W 20 22 11 12 1005.0 1005.0 0.0
29/08:30pm 28.7 32.2 26.0 85 1.9 W 19 22 10 12 1004.9 - 0.0
29/08:00pm 28.8 31.7 26.0 85 2.0 W 22 24 12 13 1004.8 - 0.0
29/07:30pm 28.8 31.3 26.0 85 2.0 W 24 26 13 14 1004.5 - 0.0
29/07:00pm 28.7 31.4 25.6 83 2.2 W 22 28 12 15 1004.2 - 0.0
29/06:30pm 29.0 32.4 26.1 84 2.1 WNW 20 24 11 13 1003.8 - 0.0
29/06:00pm 29.6 33.4 26.4 83 2.3 NW 19 22 10 12 1003.3 1003.3 0.0
29/05:30pm 30.3 35.5 26.8 81 2.5 NW 13 17 7 9 1002.9 - 0.0
29/05:00pm 30.4 34.4 26.2 78 3.0 NW 17 22 9 12 1002.6 - 0.0
29/04:30pm 30.8 34.4 26.2 76 3.3 WNW 19 20 10 11 1002.3 - 0.0
29/04:00pm 31.3 34.9 26.4 75 3.5 WNW 20 24 11 13 1002.2 - 0.0
29/03:30pm 30.5 33.0 26.0 77 3.2 WNW 24 28 13 15 1002.3 - 0.0
29/03:00pm 30.7 32.2 25.6 74 3.6 WNW 28 32 15 17 1002.6 1002.6 0.0
29/02:30pm 30.8 32.4 25.7 74 3.6 WNW 28 33 15 18 1002.7 - 0.0
29/02:00pm 31.3 33.1 26.1 74 3.7 WNW 28 32 15 17 1002.8 - 0.0
29/01:30pm 31.2 34.5 26.6 76 3.3 WNW 22 26 12 14 1002.9 - 0.0
29/01:00pm 32.0 35.8 26.7 73 3.8 NW 20 24 11 13 1003.2 - 0.0
29/12:30pm 31.1 34.7 26.4 76 3.4 NW 20 26 11 14 1003.6 - 0.0
29/12:00pm 30.9 35.4 26.4 77 3.2 NW 15 22 8 12 1003.9 1003.9 0.0
29/11:30am 31.0 35.2 26.5 77 3.2 NW 17 24 9 13 1004.1 - 0.0
29/11:00am 31.0 35.1 26.4 76 3.3 NW 17 22 9 12 1004.2 - 0.0
29/10:30am 30.4 34.0 26.4 79 2.9 WNW 20 22 11 12 1004.3 - 0.0
29/10:00am 30.6 34.3 26.6 79 2.9 WNW 20 24 11 13 1004.1 - 0.0
29/09:30am 30.0 33.0 26.2 80 2.7 W 22 26 12 14 1004.1 - 0.0
29/09:00am 30.3 33.1 26.4 79 2.8 W 24 28 13 15 1004.1 1004.1 0.2
29/08:30am 29.6 32.6 26.1 81 2.5 WNW 22 28 12 15 1004.2 - 0.2
29/08:00am 29.6 32.5 26.5 83 2.2 WNW 24 28 13 15 1003.9 - 0.2
29/07:30am 29.4 32.1 26.3 83 2.2 WNW 24 28 13 15 1003.6 - 0.2
29/07:00am 28.9 31.8 26.5 87 1.7 WNW 24 28 13 15 1003.3 - 0.2
29/06:30am 28.5 30.9 25.8 85 1.9 NW 24 30 13 16 1003.1 - 0.2
29/06:00am 28.4 31.3 26.0 87 1.7 NW 22 28 12 15 1002.8 1002.8 0.2
29/05:30am 28.4 30.7 25.7 85 1.9 NW 24 30 13 16 1002.5 - 0.2
29/05:00am 28.3 29.4 25.6 85 1.9 NW 30 33 16 18 1002.4 - 0.2
29/04:30am 28.3 30.4 25.9 87 1.7 NW 26 32 14 17 1002.3 - 0.2
29/04:00am 28.4 30.5 25.9 86 1.8 NW 26 35 14 19 1002.1 - 0.2
29/03:30am 28.4 30.7 26.2 88 1.6 NW 26 32 14 17 1001.8 - 0.2
29/03:00am 28.4 31.3 26.0 87 1.7 NW 22 28 12 15 1001.9 1001.9 0.2
29/02:30am 28.5 30.3 26.0 86 1.8 NW 28 33 15 18 1001.9 - 0.2
29/02:00am 28.4 30.6 26.0 87 1.7 NW 26 32 14 17 1001.8 - 0.2
29/01:30am 28.4 30.8 26.4 89 1.4 NW 26 32 14 17 1001.9 - 0.2
29/01:00am 28.4 31.6 26.4 89 1.4 NW 22 28 12 15 1002.2 - 0.2
29/12:30am 28.3 31.4 26.3 89 1.4 WNW 22 26 12 14 1002.4 - 0.2
29/12:00am 28.4 32.2 26.4 89 1.4 NW 19 24 10 13 1002.8 1002.8 0.2
 
Date/Time
EST
Temp
°C
App
Temp
°C
Dew
Point
Rel
Hum
%
Delta-T
°C
Wind Press
QNH
hPa
Press
MSL
hPa
Rain
since 9 am
mm
Dir
 
Spd
km/h
Gust
km/h
Spd
kts
Gust
kts
28/11:30pm 28.4 32.2 26.4 89 1.4 NW 19 20 10 11 1003.3 - 0.2
28/11:00pm 28.6 32.8 26.5 88 1.5 NW 17 20 9 11 1003.7 - 0.2
28/10:30pm 28.5 33.6 26.7 90 1.3 NNW 13 15 7 8 1003.6 - 0.2
28/10:00pm 28.4 32.9 26.4 89 1.4 NNW 15 19 8 10 1003.4 - 0.2
28/09:30pm 28.2 33.0 26.2 89 1.4 NNW 13 15 7 8 1003.3 - 0.2
28/09:00pm 28.3 33.1 26.2 88 1.5 NW 13 15 7 8 1003.1 1003.1 0.2
28/08:30pm 28.3 32.6 26.1 88 1.6 NW 15 19 8 10 1002.9 - 0.2
28/08:00pm 28.4 32.8 26.2 88 1.6 NW 15 19 8 10 1002.8 - 0.2
28/07:30pm 28.3 32.1 25.9 87 1.7 NW 17 19 9 10 1002.7 - 0.2
28/07:00pm 28.3 31.7 25.9 87 1.7 NW 19 22 10 12 1002.4 - 0.2
28/06:30pm 28.6 32.5 26.1 86 1.8 NW 17 20 9 11 1001.9 - 0.2
28/06:00pm 28.7 32.3 26.2 86 1.8 WNW 19 22 10 12 1001.3 1001.3 0.2
28/05:30pm 28.8 32.3 26.3 86 1.8 WNW 20 24 11 13 1000.8 - 0.2
28/05:00pm 29.0 32.2 25.6 82 2.4 WNW 19 20 10 11 1000.5 - 0.2
28/04:30pm 29.0 32.0 25.6 82 2.4 WNW 20 22 11 12 1000.5 - 0.2
28/04:00pm 29.0 32.2 25.5 81 2.5 W 19 20 10 11 1000.1 - 0.2
28/03:30pm 29.2 32.4 24.9 77 3.0 WNW 17 19 9 10 999.8 - 0.2
28/03:00pm 29.6 33.6 25.1 77 3.2 W 13 15 7 8 1000.2 1000.2 0.2
28/02:30pm 29.3 33.2 24.3 74 3.5 WNW 11 15 6 8 1000.5 - 0.2
28/02:00pm 29.0 32.7 24.6 77 3.1 NW 13 15 7 8 1000.5 - 0.2
28/01:30pm 28.9 33.8 24.3 76 3.2 WNW 6 9 3 5 1000.6 - 0.2
28/01:00pm 28.8 33.5 25.0 80 2.7 WNW 9 11 5 6 1000.7 - 0.2
28/12:30pm 28.5 32.8 24.9 81 2.5 NW 11 15 6 8 1001.5 - 0.2
28/12:00pm 28.8 32.4 25.0 80 2.7 W 15 17 8 9 1002.2 1002.2 0.2
28/11:30am 28.6 33.2 24.7 79 2.7 W 9 13 5 7 1002.0 - 0.2
28/11:00am 28.8 33.2 24.5 77 3.0 SW 9 11 5 6 1002.1 - 0.2
28/10:30am 28.7 33.1 24.5 78 2.9 W 9 13 5 7 1002.3 - 0.2
28/10:00am 29.0 33.5 25.2 80 2.7 WSW 11 13 6 7 1002.7 - 0.2
28/09:30am 28.2 32.1 24.8 82 2.4 SSW 13 13 7 7 1002.4 - 0.2
28/09:00am 27.5 29.3 24.9 86 1.8 SW 24 28 13 15 1002.4 1002.4 0.8
28/08:30am 27.1 29.6 24.5 86 1.8 SW 19 22 10 12 1002.2 - 0.8
28/08:00am 27.4 30.1 24.7 85 1.9 WSW 19 20 10 11 1001.6 - 0.8
28/07:30am 26.7 28.7 24.5 88 1.5 WSW 22 24 12 13 1001.8 - 0.8
28/07:00am 27.0 29.3 25.0 89 1.4 WSW 22 26 12 14 1002.0 - 0.8
28/06:30am 27.1 29.2 24.1 84 2.1 W 20 26 11 14 1001.6 - 0.8
28/06:00am 26.6 27.7 24.3 87 1.6 WNW 26 32 14 17 1001.4 1001.4 0.8
28/05:30am 27.8 28.8 24.8 84 2.1 WNW 28 32 15 17 1000.8 - 0.8
28/05:00am 28.1 30.4 25.6 86 1.8 NW 24 28 13 15 1000.6 - 0.8
28/04:30am 28.3 30.4 25.3 84 2.1 NW 24 30 13 16 1000.6 - 0.8
28/04:00am 28.2 29.6 25.4 85 2.0 NW 28 32 15 17 1000.5 - 0.8
28/03:30am 28.3 30.2 25.0 82 2.3 NW 24 32 13 17 1000.5 - 0.8
28/03:00am 28.3 30.8 25.3 84 2.1 NW 22 28 12 15 1000.7 1000.7 0.8
28/02:30am 28.3 30.9 25.5 85 2.0 NW 22 28 12 15 1000.6 - 0.8
28/02:00am 28.3 31.3 25.6 85 1.9 NW 20 24 11 13 1001.1 - 0.8
28/01:30am 28.2 32.9 26.1 88 1.5 NW 13 20 7 11 1001.4 - 0.8
28/01:00am 28.1 32.2 25.8 87 1.6 NW 15 20 8 11 1001.8 - 0.8
28/12:30am 28.0 31.6 25.6 87 1.7 NW 17 20 9 11 1002.3 - 0.8
28/12:00am 27.7 31.1 24.7 84 2.1 NW 15 17 8 9 1002.6 1002.6 0.8
 
Date/Time
EST
Temp
°C
App
Temp
°C
Dew
Point
Rel
Hum
%
Delta-T
°C
Wind Press
QNH
hPa
Press
MSL
hPa
Rain
since 9 am
mm
Dir
 
Spd
km/h
Gust
km/h
Spd
kts
Gust
kts
27/11:30pm 27.6 31.2 24.4 83 2.2 NNW 13 15 7 8 1003.0 - 0.8
27/11:00pm 27.8 31.4 24.3 81 2.4 WNW 13 15 7 8 1003.7 - 0.8
27/10:30pm 27.5 30.6 24.2 82 2.3 W 15 17 8 9 1003.9 - 0.8
27/10:00pm 27.6 29.5 23.4 78 2.9 W 19 20 10 11 1003.7 - 0.8
27/09:30pm 27.8 29.5 23.4 77 3.0 W 20 22 11 12 1003.4 - 0.8
27/09:00pm 27.5 29.9 24.3 83 2.2 WSW 19 20 10 11 1003.4 1003.4 0.8
27/08:30pm 27.3 30.0 24.1 83 2.2 SW 17 20 9 11 1003.4 - 0.8
27/08:00pm 27.3 30.0 24.7 86 1.8 WSW 19 20 10 11 1003.3 - 0.4
27/07:30pm 27.2 28.3 23.6 81 2.5 WSW 24 28 13 15 1003.0 - 0.0
27/07:00pm 27.4 29.4 23.9 81 2.4 WSW 20 24 11 13 1002.7 - 0.0
27/06:30pm 26.5 28.1 23.9 85 1.8 WSW 22 28 12 15 1002.2 - 0.0
27/06:00pm 26.9 28.4 23.7 82 2.2 WSW 22 30 12 16 1001.8 1001.8 0.0
27/05:30pm 25.8 28.2 22.9 84 2.0 SW 15 20 8 11 1001.4 - 0.0
27/05:00pm 26.1 25.6 22.1 78 2.7 SSW 28 35 15 19 1001.5 - 0.0
27/04:58pm 26.2 25.0 22.2 78 2.7 SSW 32 35 17 19 1001.5 - 0.0
27/04:37pm 27.5 25.4 23.0 76 3.1 WSW 39 44 21 24 1001.1 - 0.0
27/04:34pm 28.8 30.3 25.6 83 2.3 W 28 46 15 25 1001.0 - 0.0
27/04:30pm 30.1 32.8 26.8 82 2.4 W 26 32 14 17 1000.9 - 0.0
27/04:00pm 29.8 32.7 26.5 82 2.4 WNW 24 28 13 15 1000.8 - 0.0
27/03:30pm 30.3 32.8 26.5 80 2.7 WNW 26 28 14 15 1001.1 - 0.0
27/03:00pm 30.6 34.3 27.1 81 2.5 W 22 26 12 14 1001.3 1001.3 0.0
27/02:30pm 31.1 34.4 27.2 80 2.8 W 24 28 13 15 1001.5 - 0.0
27/02:00pm 31.1 34.4 27.2 80 2.8 W 24 28 13 15 1001.7 - 0.0
27/01:30pm 30.7 33.6 27.1 81 2.6 W 26 32 14 17 1002.0 - 0.0
27/01:00pm 30.9 33.3 26.9 79 2.9 W 28 32 15 17 1002.1 - 0.0
27/12:30pm 30.6 33.6 27.3 82 2.4 WNW 26 32 14 17 1002.2 - 0.0
27/12:00pm 30.8 34.3 27.4 82 2.5 WNW 24 28 13 15 1002.7 1002.7 0.0
27/11:30am 31.0 34.3 27.7 82 2.4 W 26 30 14 16 1003.0 - 0.0
27/11:00am 30.5 33.9 27.3 83 2.3 W 24 28 13 15 1003.1 - 0.0
27/10:30am 30.9 34.2 27.6 82 2.4 W 26 30 14 16 1003.3 - 0.0

Other Formats:

Comma delimited format used in spreadsheet applications
http://www.bom.gov.au/fwo/IDQ60801/IDQ60801.94299.axf

JavaScript Object Notation format (JSON) in row-major order
http://www.bom.gov.au/fwo/IDQ60801/IDQ60801.94299.json